Time;durP1;ratioP1;P1;durP2;ratioP2;P2;SDS_P1;SDS_P2;PMS_P1;PMS_P2;Temp;Humidity;BMP_temperature;BMP_pressure;BME280_temperature;BME280_humidity;BME280_pressure;Samples;Min_cycle;Max_cycle;Signal;HPM_P1;HPM_P2
2021/10/11 00:01:52;;;;;;;4.18;2.83;;;19.20;84.60;;;;;;5071602;28;20086;-83
2021/10/11 00:04:18;;;;;;;5.85;3.30;;;19.20;84.60;;;;;;5071676;28;20082;-82
2021/10/11 00:06:44;;;;;;;3.97;2.78;;;19.20;84.70;;;;;;5071905;28;20032;-81
2021/10/11 00:09:09;;;;;;;5.35;3.25;;;19.10;84.70;;;;;;5072020;28;20024;-84
2021/10/11 00:11:35;;;;;;;4.82;3.05;;;19.20;84.70;;;;;;5071448;28;20384;-83
2021/10/11 00:14:01;;;;;;;4.18;2.80;;;19.10;84.70;;;;;;5071047;28;20135;-80
2021/10/11 00:16:27;;;;;;;4.78;3.33;;;19.10;84.70;;;;;;5053336;28;20036;-83
2021/10/11 00:18:53;;;;;;;6.55;3.63;;;19.20;84.90;;;;;;5053656;28;20021;-82
2021/10/11 00:21:19;;;;;;;4.55;2.97;;;19.10;85.50;;;;;;5071232;28;20028;-79
2021/10/11 00:23:45;;;;;;;4.57;2.70;;;19.10;84.70;;;;;;5071324;28;20020;-82
2021/10/11 00:26:11;;;;;;;5.70;2.95;;;19.10;84.70;;;;;;5071737;28;20062;-80
2021/10/11 00:28:37;;;;;;;4.75;2.25;;;19.10;84.80;;;;;;5070749;28;20561;-80
2021/10/11 00:31:03;;;;;;;6.40;3.20;;;19.10;84.80;;;;;;5071286;28;20059;-82
2021/10/11 00:33:28;;;;;;;4.57;2.78;;;19.10;84.80;;;;;;5070644;28;20487;-81
2021/10/11 00:35:54;;;;;;;5.63;3.17;;;19.10;84.80;;;;;;5071186;28;20024;-84
2021/10/11 00:38:20;;;;;;;4.25;2.50;;;19.10;84.80;;;;;;5071190;28;20044;-81
2021/10/11 00:40:45;;;;;;;3.97;2.40;;;19.10;84.90;;;;;;5071660;28;20024;-81
2021/10/11 00:43:11;;;;;;;3.80;2.50;;;19.10;84.80;;;;;;5070528;28;20027;-81
2021/10/11 00:45:37;;;;;;;5.47;3.35;;;19.10;84.80;;;;;;5071045;28;20032;-82
2021/10/11 00:48:02;;;;;;;4.30;2.60;;;19.10;84.90;;;;;;5052467;28;20032;-80
2021/10/11 00:50:28;;;;;;;5.22;2.50;;;19.10;84.90;;;;;;5070759;28;20029;-83
2021/10/11 00:52:55;;;;;;;3.30;2.13;;;19.10;84.90;;;;;;5070900;28;20033;-83
2021/10/11 00:55:22;;;;;;;4.55;2.40;;;19.10;84.90;;;;;;5071054;28;20031;-81
2021/10/11 00:57:47;;;;;;;4.18;2.53;;;19.00;84.90;;;;;;5052372;28;20427;-82
2021/10/11 01:00:13;;;;;;;4.05;2.17;;;19.10;84.90;;;;;;5070807;28;20056;-79
2021/10/11 01:02:40;;;;;;;4.68;2.10;;;19.10;85.00;;;;;;5070432;28;20021;-82
2021/10/11 01:05:07;;;;;;;4.40;2.50;;;19.00;85.00;;;;;;5070923;28;20028;-80
2021/10/11 01:07:32;;;;;;;3.95;2.63;;;19.00;85.00;;;;;;5052724;28;20032;-80
2021/10/11 01:09:58;;;;;;;4.30;1.92;;;19.00;85.00;;;;;;5070785;28;20021;-80
2021/10/11 01:12:24;;;;;;;4.43;2.08;;;19.00;85.00;;;;;;5070356;28;20047;-79
2021/10/11 01:14:50;;;;;;;3.60;2.00;;;19.00;85.00;;;;;;5070276;28;20037;-81
2021/10/11 01:17:15;;;;;;;4.63;2.53;;;19.00;85.00;;;;;;5070521;28;20017;-84
2021/10/11 01:19:45;;;;;;;6.22;2.30;;;19.00;85.00;;;;;;5070446;28;20070;-85
2021/10/11 01:22:11;;;;;;;5.03;2.25;;;19.00;85.10;;;;;;5069500;28;20404;-81
2021/10/11 01:24:37;;;;;;;4.72;2.42;;;19.00;85.00;;;;;;5070722;28;20021;-82
2021/10/11 01:27:03;;;;;;;3.55;2.00;;;19.00;85.00;;;;;;5070241;28;20029;-84
2021/10/11 01:29:28;;;;;;;5.00;1.92;;;18.90;84.80;;;;;;5070493;28;20021;-83
2021/10/11 01:31:54;;;;;;;4.05;2.13;;;19.00;85.10;;;;;;5052694;28;20550;-83
2021/10/11 01:34:20;;;;;;;3.42;1.88;;;19.00;84.90;;;;;;5070640;28;20441;-82
2021/10/11 01:36:45;;;;;;;2.85;1.75;;;18.90;85.00;;;;;;5070830;28;20420;-81
2021/10/11 01:39:11;;;;;;;3.10;1.70;;;18.90;85.00;;;;;;5070896;28;20104;-81
2021/10/11 01:41:37;;;;;;;5.53;1.98;;;19.00;85.00;;;;;;5070515;28;20020;-81
2021/10/11 01:44:03;;;;;;;3.83;2.05;;;19.00;85.10;;;;;;5070666;28;20039;-81
2021/10/11 01:46:29;;;;;;;4.20;2.05;;;18.90;85.00;;;;;;5070561;28;20021;-80
2021/10/11 01:48:56;;;;;;;4.47;1.90;;;18.90;85.00;;;;;;5070350;28;20377;-80
2021/10/11 01:51:22;;;;;;;5.03;1.85;;;18.90;85.00;;;;;;5070289;28;20085;-81
2021/10/11 01:53:48;;;;;;;3.75;1.73;;;18.90;85.00;;;;;;5070561;28;20035;-80
2021/10/11 01:56:14;;;;;;;2.55;1.48;;;18.90;85.00;;;;;;5071131;28;20467;-81
2021/10/11 01:58:40;;;;;;;3.63;1.80;;;18.90;85.10;;;;;;5069709;28;20028;-80
2021/10/11 02:01:06;;;;;;;2.67;1.80;;;18.90;85.00;;;;;;5070203;28;20032;-80
2021/10/11 02:03:32;;;;;;;5.63;2.15;;;18.90;85.10;;;;;;5069940;28;20025;-81
2021/10/11 02:05:58;;;;;;;5.15;2.17;;;18.90;85.00;;;;;;5070046;28;20032;-81
2021/10/11 02:08:23;;;;;;;4.85;1.70;;;18.90;85.00;;;;;;5069860;28;20024;-80
2021/10/11 02:10:49;;;;;;;3.85;1.63;;;18.90;85.00;;;;;;5070700;28;20017;-80
2021/10/11 02:13:15;;;;;;;4.72;1.90;;;18.90;85.00;;;;;;5070180;28;20041;-81
2021/10/11 02:15:40;;;;;;;3.88;1.63;;;18.90;84.90;;;;;;5069663;28;20029;-80
2021/10/11 02:18:06;;;;;;;3.95;1.77;;;18.90;85.00;;;;;;5069394;28;20029;-81
2021/10/11 02:20:31;;;;;;;3.53;1.60;;;18.90;84.90;;;;;;5070890;28;20103;-81
2021/10/11 02:22:57;;;;;;;3.55;1.90;;;18.90;84.90;;;;;;5073503;28;20027;-80
2021/10/11 02:25:23;;;;;;;2.85;1.42;;;18.90;84.90;;;;;;5073195;28;20028;-81
2021/10/11 02:27:48;;;;;;;3.60;1.75;;;18.90;85.60;;;;;;5073802;28;20106;-81
2021/10/11 02:30:14;;;;;;;3.30;2.03;;;18.90;84.90;;;;;;5074018;28;20028;-81
2021/10/11 02:32:41;;;;;;;2.83;1.70;;;18.90;84.90;;;;;;5073196;28;20415;-82
2021/10/11 02:35:07;;;;;;;4.45;1.67;;;18.90;84.90;;;;;;5073571;28;20177;-81
2021/10/11 02:37:33;;;;;;;3.25;1.35;;;18.90;84.80;;;;;;5073125;28;20066;-82
2021/10/11 02:39:59;;;;;;;4.13;2.10;;;18.80;84.70;;;;;;5073321;28;20036;-82
2021/10/11 02:42:25;;;;;;;3.80;1.80;;;18.90;84.80;;;;;;5054996;28;20020;-81
2021/10/11 02:44:51;;;;;;;3.22;1.50;;;18.90;84.80;;;;;;5073191;28;20035;-82
2021/10/11 02:47:17;;;;;;;3.63;1.50;;;18.90;84.80;;;;;;5073601;28;20111;-81
2021/10/11 02:49:43;;;;;;;9.07;2.28;;;18.90;84.70;;;;;;5072687;28;20055;-81
2021/10/11 02:52:09;;;;;;;4.15;1.88;;;18.80;84.60;;;;;;5073586;28;20103;-80
2021/10/11 02:54:34;;;;;;;2.83;1.38;;;18.80;84.60;;;;;;5072995;28;20048;-81
2021/10/11 02:57:00;;;;;;;3.20;1.33;;;18.80;84.60;;;;;;5072729;28;20021;-80
2021/10/11 02:59:26;;;;;;;3.08;1.67;;;18.80;84.60;;;;;;5073046;28;20091;-81
2021/10/11 03:01:51;;;;;;;3.65;1.60;;;18.80;85.30;;;;;;5071902;28;20027;-80
2021/10/11 03:04:17;;;;;;;3.78;1.52;;;18.80;84.40;;;;;;5072988;28;20028;-81
2021/10/11 03:06:43;;;;;;;3.08;1.20;;;18.80;84.40;;;;;;5073142;28;20021;-82
2021/10/11 03:09:09;;;;;;;2.42;1.27;;;18.80;84.30;;;;;;5072819;28;20032;-80
2021/10/11 03:11:35;;;;;;;3.70;1.30;;;18.80;84.30;;;;;;5072687;28;20558;-84
2021/10/11 03:14:00;;;;;;;4.47;1.42;;;18.80;84.30;;;;;;5054449;28;20040;-81
2021/10/11 03:16:26;;;;;;;3.40;1.25;;;18.80;84.40;;;;;;5072306;28;20027;-81
2021/10/11 03:18:52;;;;;;;3.50;1.40;;;18.80;84.30;;;;;;5054774;28;20441;-81
2021/10/11 03:21:18;;;;;;;4.35;1.63;;;18.80;84.30;;;;;;5072856;28;20126;-81
2021/10/11 03:23:50;;;;;;;3.83;1.67;;;18.80;84.30;;;;;;5072610;28;20103;-82
2021/10/11 03:26:20;;;;;;;2.70;1.00;;;18.80;84.20;;;;;;5072693;28;20032;-81
2021/10/11 03:28:46;;;;;;;3.40;1.23;;;18.80;84.30;;;;;;5072852;28;20081;-81
2021/10/11 03:31:12;;;;;;;3.55;1.60;;;18.70;84.10;;;;;;5072895;28;20103;-83
2021/10/11 03:33:38;;;;;;;2.67;1.13;;;18.70;84.00;;;;;;5072096;28;20119;-82
2021/10/11 03:36:05;;;;;;;3.60;1.30;;;18.80;84.00;;;;;;5072352;28;20532;-81
2021/10/11 03:38:31;;;;;;;4.13;1.50;;;18.80;84.00;;;;;;5072154;28;20468;-80
2021/10/11 03:40:57;;;;;;;2.42;1.40;;;18.80;84.00;;;;;;5072683;28;20056;-80
2021/10/11 03:43:23;;;;;;;2.53;1.17;;;18.70;84.00;;;;;;5054139;28;20036;-80
2021/10/11 03:45:48;;;;;;;1.60;1.10;;;18.70;83.80;;;;;;5073041;28;20484;-80
2021/10/11 03:48:14;;;;;;;3.58;1.42;;;18.70;83.80;;;;;;5072865;28;20070;-81
2021/10/11 03:50:39;;;;;;;3.03;1.42;;;18.70;83.80;;;;;;5071917;28;20029;-81
2021/10/11 03:53:05;;;;;;;2.35;1.23;;;18.70;83.80;;;;;;5071827;28;20387;-83
2021/10/11 03:55:31;;;;;;;2.03;1.00;;;18.70;83.70;;;;;;5054092;28;20554;-82
2021/10/11 03:57:57;;;;;;;2.90;1.17;;;18.70;83.70;;;;;;5071886;28;20031;-84
2021/10/11 04:00:22;;;;;;;3.80;1.30;;;18.70;83.70;;;;;;5071790;28;20047;-83
2021/10/11 04:02:48;;;;;;;5.43;1.75;;;18.70;83.60;;;;;;5071902;28;20013;-82
2021/10/11 04:05:14;;;;;;;2.28;1.20;;;18.70;83.60;;;;;;5072456;28;20110;-82
2021/10/11 04:07:42;;;;;;;1.77;1.10;;;18.70;83.50;;;;;;5071424;28;20032;-81
2021/10/11 04:10:09;;;;;;;3.10;1.25;;;18.70;83.40;;;;;;5072081;28;20064;-84
2021/10/11 04:12:36;;;;;;;3.30;1.60;;;18.70;83.50;;;;;;5070590;28;20025;-83
2021/10/11 04:15:04;;;;;;;2.40;1.10;;;18.70;83.50;;;;;;5071355;28;20035;-83
2021/10/11 04:17:29;;;;;;;2.28;1.10;;;18.60;83.30;;;;;;5070710;28;20017;-80
2021/10/11 04:19:55;;;;;;;2.90;1.30;;;18.60;83.20;;;;;;5071138;28;20438;-80
2021/10/11 04:22:21;;;;;;;2.45;1.15;;;18.70;83.40;;;;;;5071412;28;20024;-82
2021/10/11 04:24:47;;;;;;;3.22;1.05;;;18.60;83.30;;;;;;5054393;28;20040;-82
2021/10/11 04:27:12;;;;;;;2.22;1.00;;;18.70;83.30;;;;;;5071542;28;20021;-81
2021/10/11 04:29:38;;;;;;;3.08;1.13;;;18.60;83.20;;;;;;5071055;28;20472;-80
2021/10/11 04:32:05;;;;;;;3.35;1.27;;;18.70;83.20;;;;;;5071059;28;20036;-81
2021/10/11 04:34:30;;;;;;;2.92;1.10;;;18.60;83.10;;;;;;5052986;28;20105;-82
2021/10/11 04:36:56;;;;;;;2.20;1.20;;;18.60;83.10;;;;;;5071118;28;20480;-84
2021/10/11 04:39:22;;;;;;;2.20;1.00;;;18.60;83.00;;;;;;5071343;28;20028;-81
2021/10/11 04:41:47;;;;;;;3.35;1.13;;;18.60;83.00;;;;;;5071381;28;20124;-81
2021/10/11 04:44:13;;;;;;;2.47;0.85;;;18.60;82.90;;;;;;5070905;28;20028;-81
2021/10/11 04:46:38;;;;;;;3.88;1.27;;;18.60;83.00;;;;;;5070084;28;20381;-81
2021/10/11 04:49:04;;;;;;;2.47;1.13;;;18.60;82.80;;;;;;5071397;28;20404;-83
2021/10/11 04:51:30;;;;;;;3.13;1.10;;;18.60;82.80;;;;;;5070625;28;20096;-81
2021/10/11 04:53:55;;;;;;;3.55;1.30;;;18.60;82.70;;;;;;5070529;28;20047;-80
2021/10/11 04:56:21;;;;;;;2.83;0.90;;;18.60;82.50;;;;;;5070768;28;20029;-82
2021/10/11 04:58:47;;;;;;;2.30;1.02;;;18.60;82.50;;;;;;5070660;28;20078;-81
2021/10/11 05:01:12;;;;;;;2.60;1.02;;;18.50;82.50;;;;;;5070366;28;20074;-81
2021/10/11 05:03:38;;;;;;;1.92;0.95;;;18.60;82.40;;;;;;5070640;28;20378;-82
2021/10/11 05:06:03;;;;;;;3.80;1.13;;;18.60;82.40;;;;;;5070991;28;20024;-81
2021/10/11 05:08:30;;;;;;;2.42;1.20;;;18.60;82.30;;;;;;5070941;28;20063;-81
2021/10/11 05:10:56;;;;;;;2.67;0.90;;;18.60;82.40;;;;;;5070912;28;20019;-81
2021/10/11 05:13:22;;;;;;;2.88;1.05;;;18.60;82.40;;;;;;5070359;28;20401;-83
2021/10/11 05:15:47;;;;;;;1.85;0.80;;;18.60;82.30;;;;;;5070935;28;20515;-81
2021/10/11 05:18:13;;;;;;;2.08;1.00;;;18.60;82.30;;;;;;5070427;28;20036;-82
2021/10/11 05:20:45;;;;;;;1.85;0.93;;;18.60;82.20;;;;;;5070185;28;20032;-81
2021/10/11 05:23:10;;;;;;;2.55;1.00;;;18.70;82.20;;;;;;5053119;28;20082;-81
2021/10/11 05:25:36;;;;;;;1.65;0.80;;;18.60;82.10;;;;;;5070187;28;20058;-82
2021/10/11 05:28:02;;;;;;;2.50;1.30;;;18.70;82.00;;;;;;5070722;28;20032;-83
2021/10/11 05:30:27;;;;;;;2.67;0.90;;;18.70;82.00;;;;;;5070527;28;20126;-83
2021/10/11 05:32:53;;;;;;;2.67;1.13;;;18.70;82.00;;;;;;5053001;28;20040;-83
2021/10/11 05:35:19;;;;;;;2.50;1.00;;;18.70;81.90;;;;;;5070640;28;20039;-82
2021/10/11 05:37:45;;;;;;;1.80;1.13;;;18.70;81.90;;;;;;5070951;28;20392;-83
2021/10/11 05:40:10;;;;;;;2.92;0.90;;;18.70;81.80;;;;;;5070287;28;20040;-84
2021/10/11 05:42:36;;;;;;;1.70;0.80;;;18.70;81.70;;;;;;5070255;28;20025;-83
2021/10/11 05:45:03;;;;;;;2.63;1.00;;;18.70;81.70;;;;;;5070589;28;20056;-81
2021/10/11 05:47:29;;;;;;;2.05;1.02;;;18.80;81.80;;;;;;5070121;28;20024;-82
2021/10/11 05:49:54;;;;;;;2.20;0.70;;;18.70;81.70;;;;;;5069784;28;20020;-81
2021/10/11 05:52:20;;;;;;;2.88;1.10;;;18.80;81.70;;;;;;5070104;28;20037;-81
2021/10/11 05:54:46;;;;;;;1.65;0.65;;;18.80;81.60;;;;;;5070035;28;20404;-81
2021/10/11 05:57:12;;;;;;;3.33;1.20;;;18.80;81.50;;;;;;5073598;28;20040;-82
2021/10/11 05:59:37;;;;;;;2.25;0.80;;;18.80;81.40;;;;;;5056321;28;20028;-82
2021/10/11 06:02:03;;;;;;;2.75;1.13;;;18.80;81.40;;;;;;5073806;28;20040;-81
2021/10/11 06:04:29;;;;;;;4.20;0.90;;;18.90;81.40;;;;;;5073633;28;20045;-82
2021/10/11 06:06:55;;;;;;;2.33;0.98;;;18.80;81.30;;;;;;5073499;28;20033;-82
2021/10/11 06:09:20;;;;;;;3.15;1.00;;;18.90;81.30;;;;;;5055690;28;20028;-83
2021/10/11 06:11:46;;;;;;;3.63;0.95;;;18.90;81.20;;;;;;5073807;28;20059;-83
2021/10/11 06:14:12;;;;;;;2.00;0.90;;;18.90;81.20;;;;;;5073778;28;20539;-83
2021/10/11 06:16:38;;;;;;;3.35;1.02;;;18.90;81.20;;;;;;5073103;28;20354;-83
2021/10/11 06:19:03;;;;;;;3.60;0.80;;;18.90;81.00;;;;;;5073417;28;20035;-83
2021/10/11 06:21:29;;;;;;;2.95;0.90;;;18.90;81.00;;;;;;5073252;28;20070;-83
2021/10/11 06:23:55;;;;;;;3.28;1.13;;;18.90;81.00;;;;;;5073191;28;20060;-81
2021/10/11 06:26:21;;;;;;;3.15;0.90;;;18.90;81.00;;;;;;5073077;28;20493;-82
2021/10/11 06:28:47;;;;;;;4.45;1.45;;;18.90;81.00;;;;;;5072769;28;20060;-85
2021/10/11 06:31:12;;;;;;;6.13;1.15;;;18.90;80.90;;;;;;5071444;28;20055;-83
2021/10/11 06:33:38;;;;;;;3.58;1.00;;;19.00;80.80;;;;;;5072669;28;20797;-82
2021/10/11 06:36:04;;;;;;;2.72;0.90;;;18.90;80.60;;;;;;5054954;28;20085;-82
2021/10/11 06:38:30;;;;;;;3.97;1.00;;;18.90;80.50;;;;;;5073238;28;20029;-83
2021/10/11 06:40:55;;;;;;;4.82;1.52;;;19.00;80.40;;;;;;5073193;28;20396;-82
2021/10/11 06:43:21;;;;;;;3.70;1.20;;;18.90;80.60;;;;;;5075977;28;20025;-89
2021/10/11 06:45:47;;;;;;;4.05;1.10;;;18.90;81.30;;;;;;5073268;28;20035;-83
2021/10/11 06:48:16;;;;;;;4.10;1.40;;;18.90;81.40;;;;;;5054759;28;20025;-83
2021/10/11 06:50:42;;;;;;;2.70;1.10;;;18.90;81.60;;;;;;5073425;28;20032;-84
2021/10/11 06:53:07;;;;;;;5.53;1.55;;;18.90;81.50;;;;;;5073464;28;20515;-85
2021/10/11 06:55:33;;;;;;;5.97;1.52;;;19.00;81.50;;;;;;5073315;28;20024;-88
2021/10/11 06:57:59;;;;;;;5.07;1.30;;;19.00;81.50;;;;;;5072361;28;20020;-86
2021/10/11 07:00:24;;;;;;;5.95;1.33;;;18.90;81.70;;;;;;5072965;28;20032;-84
2021/10/11 07:02:50;;;;;;;8.85;1.45;;;19.00;81.70;;;;;;5073439;28;20547;-85
2021/10/11 07:05:16;;;;;;;5.57;1.42;;;19.00;81.50;;;;;;5073583;28;20035;-85
2021/10/11 07:07:42;;;;;;;5.68;1.30;;;19.00;81.30;;;;;;5072697;28;20040;-86
2021/10/11 07:10:09;;;;;;;5.03;1.50;;;19.00;81.10;;;;;;5073235;28;20106;-84
2021/10/11 07:12:35;;;;;;;5.65;1.38;;;18.90;80.80;;;;;;5072850;28;20025;-85
2021/10/11 07:15:02;;;;;;;6.88;1.65;;;19.00;80.70;;;;;;5072311;28;20127;-82
2021/10/11 07:17:28;;;;;;;5.32;1.30;;;19.00;80.70;;;;;;5072605;28;20153;-81
2021/10/11 07:19:53;;;;;;;2.28;1.10;;;19.00;80.80;;;;;;5072864;28;20104;-82
2021/10/11 07:22:19;;;;;;;2.97;1.30;;;18.90;80.70;;;;;;5072273;28;20021;-81
2021/10/11 07:24:46;;;;;;;4.53;1.23;;;19.00;80.70;;;;;;5073374;28;20012;-88
2021/10/11 07:27:12;;;;;;;6.40;1.35;;;18.90;80.60;;;;;;5073025;28;20035;-85
2021/10/11 07:29:38;;;;;;;3.95;1.40;;;18.90;80.60;;;;;;5071807;28;20593;-87
2021/10/11 07:32:05;;;;;;;3.42;1.30;;;19.00;80.70;;;;;;5072849;28;20498;-84
2021/10/11 07:34:31;;;;;;;4.18;1.02;;;18.90;80.60;;;;;;5072387;28;20032;-85
2021/10/11 07:36:57;;;;;;;3.13;1.08;;;18.90;80.60;;;;;;5072773;28;20025;-83
2021/10/11 07:39:23;;;;;;;2.28;1.10;;;18.90;80.70;;;;;;5072551;28;20086;-83
2021/10/11 07:41:48;;;;;;;3.67;1.27;;;18.90;80.60;;;;;;5072995;28;20020;-82
2021/10/11 07:44:14;;;;;;;5.53;1.30;;;19.00;80.70;;;;;;5072321;28;20032;-82
2021/10/11 07:46:40;;;;;;;2.70;1.25;;;18.90;80.60;;;;;;5072350;28;20021;-83
2021/10/11 07:49:06;;;;;;;3.33;1.20;;;18.90;80.50;;;;;;5072093;28;20033;-82
2021/10/11 07:51:32;;;;;;;4.03;1.55;;;18.90;80.50;;;;;;5072302;28;20024;-85
2021/10/11 07:53:57;;;;;;;2.78;1.15;;;18.90;80.50;;;;;;5054419;28;20043;-86
2021/10/11 07:56:23;;;;;;;3.22;1.38;;;18.90;80.40;;;;;;5054278;28;20447;-83
2021/10/11 07:58:49;;;;;;;3.53;1.05;;;18.90;80.40;;;;;;5071825;28;20039;-81
2021/10/11 08:01:14;;;;;;;3.35;1.27;;;18.90;80.30;;;;;;5072628;28;20031;-85
2021/10/11 08:03:40;;;;;;;4.95;1.42;;;18.90;80.30;;;;;;5071712;28;20047;-84
2021/10/11 08:06:07;;;;;;;3.58;1.55;;;18.90;80.30;;;;;;5072145;28;20096;-85
2021/10/11 08:08:34;;;;;;;2.92;1.00;;;18.90;80.30;;;;;;5071817;28;20025;-85
2021/10/11 08:11:01;;;;;;;2.78;1.10;;;18.90;80.20;;;;;;5071948;28;20060;-83
2021/10/11 08:13:27;;;;;;;4.93;1.23;;;18.90;80.20;;;;;;5069811;28;20035;-84
2021/10/11 08:15:54;;;;;;;3.47;1.20;;;18.90;80.20;;;;;;5072033;28;20027;-82
2021/10/11 08:18:20;;;;;;;4.35;1.20;;;18.90;80.10;;;;;;5071050;28;20499;-83
2021/10/11 08:20:46;;;;;;;2.28;1.17;;;18.90;80.00;;;;;;5071829;28;20060;-82
2021/10/11 08:23:12;;;;;;;4.00;1.38;;;18.90;80.00;;;;;;5053894;28;20385;-83
2021/10/11 08:25:38;;;;;;;3.42;1.15;;;18.90;80.00;;;;;;5071539;28;20047;-83
2021/10/11 08:28:04;;;;;;;4.63;1.65;;;18.90;79.90;;;;;;5071601;28;20024;-82
2021/10/11 08:30:30;;;;;;;2.83;1.30;;;18.90;79.80;;;;;;5071524;28;20024;-83
2021/10/11 08:32:56;;;;;;;3.00;1.20;;;18.90;79.80;;;;;;5071673;28;20020;-83
2021/10/11 08:35:21;;;;;;;3.25;1.60;;;18.90;79.70;;;;;;5071090;28;20039;-83
2021/10/11 08:37:47;;;;;;;4.15;1.15;;;18.90;79.70;;;;;;5071995;28;20487;-83
2021/10/11 08:40:13;;;;;;;4.00;1.30;;;18.90;79.60;;;;;;5071078;28;20060;-86
2021/10/11 08:42:40;;;;;;;2.55;0.93;;;18.90;79.60;;;;;;5070946;28;20869;-82
2021/10/11 08:45:07;;;;;;;2.42;1.17;;;18.90;79.60;;;;;;5053192;28;20020;-82
2021/10/11 08:47:33;;;;;;;3.38;1.45;;;18.90;79.50;;;;;;5071280;28;20035;-83
2021/10/11 08:49:59;;;;;;;2.97;1.10;;;18.90;79.40;;;;;;5071436;28;20099;-83
2021/10/11 08:52:24;;;;;;;4.63;1.67;;;18.90;79.40;;;;;;5053205;28;20036;-83
2021/10/11 08:54:54;;;;;;;2.88;1.23;;;18.90;79.30;;;;;;5071427;28;20032;-85
2021/10/11 08:57:23;;;;;;;2.50;0.85;;;18.90;79.30;;;;;;5071165;28;20020;-82
2021/10/11 08:59:50;;;;;;;2.55;1.48;;;18.90;79.30;;;;;;5070698;28;20112;-82
2021/10/11 09:02:19;;;;;;;3.25;1.27;;;18.90;79.20;;;;;;5071709;28;20056;-84
2021/10/11 09:04:52;;;;;;;2.65;1.30;;;18.90;79.10;;;;;;5071743;28;20062;-86
2021/10/11 09:07:22;;;;;;;4.38;1.10;;;19.00;79.20;;;;;;5071590;28;20033;-85
2021/10/11 09:09:49;;;;;;;4.10;1.83;;;18.90;79.10;;;;;;5053364;28;20028;-88
2021/10/11 09:12:23;;;;;;;3.90;1.38;;;19.00;79.80;;;;;;5071025;28;20484;-86
2021/10/11 09:15:08;;;;;;;2.97;1.25;;;18.90;79.00;;;;;;5051427;28;20040;-84
2021/10/11 09:17:39;;;;;;;3.30;1.20;;;18.90;79.00;;;;;;5050830;28;20021;-86
2021/10/11 09:20:19;;;;;;;3.20;1.30;;;19.00;79.00;;;;;;5051218;28;20503;-86
2021/10/11 09:22:47;;;;;;;2.75;1.45;;;19.00;78.90;;;;;;5051578;28;20100;-84
2021/10/11 09:25:15;;;;;;;4.65;1.20;;;19.00;78.90;;;;;;5051095;28;20112;-88
2021/10/11 09:27:47;;;;;;;2.15;1.05;;;19.00;78.90;;;;;;5052396;28;20027;-86
2021/10/11 09:30:14;;;;;;;3.97;1.52;;;19.00;78.80;;;;;;5053343;28;20075;-84
2021/10/11 09:32:39;;;;;;;4.57;1.17;;;19.00;78.70;;;;;;5054846;28;20025;-88
2021/10/11 09:35:15;;;;;;;5.82;1.70;;;19.00;78.70;;;;;;5056630;28;20047;-86
2021/10/11 09:37:41;;;;;;;;;;;19.00;78.60;;;;;;5075208;28;20048;-88
2021/10/11 09:40:09;;;;;;;3.35;1.13;;;19.00;78.60;;;;;;5075093;28;20043;-86
2021/10/11 09:42:34;;;;;;;3.25;1.27;;;19.00;78.50;;;;;;5074411;28;20063;-87
2021/10/11 09:45:02;;;;;;;3.30;1.10;;;19.00;78.50;;;;;;5074102;28;20056;-90
2021/10/11 09:47:39;;;;;;;4.65;1.20;;;19.00;78.50;;;;;;5074761;28;20063;-86
2021/10/11 09:50:10;;;;;;;4.25;1.67;;;19.00;78.40;;;;;;5074885;28;20023;-86
2021/10/11 09:52:37;;;;;;;2.97;1.27;;;19.10;78.50;;;;;;5074763;28;20024;-86
2021/10/11 09:55:04;;;;;;;3.78;1.55;;;19.10;78.50;;;;;;5074621;28;20036;-87
2021/10/11 09:57:31;;;;;;;4.15;1.50;;;19.10;78.40;;;;;;5074292;28;20027;-82
2021/10/11 10:00:04;;;;;;;4.80;1.55;;;19.10;78.40;;;;;;5056320;28;20032;-86
2021/10/11 10:02:31;;;;;;;2.15;1.08;;;19.10;78.40;;;;;;5074485;28;20013;-84
2021/10/11 10:05:00;;;;;;;3.90;1.17;;;19.10;78.30;;;;;;5074542;28;20055;-84
2021/10/11 10:07:27;;;;;;;4.50;1.45;;;19.10;78.30;;;;;;5074253;28;20025;-88
2021/10/11 10:09:55;;;;;;;3.92;1.42;;;19.10;78.20;;;;;;5074491;28;20142;-87
2021/10/11 10:12:21;;;;;;;2.53;1.10;;;19.10;78.20;;;;;;5073991;28;20040;-84
2021/10/11 10:14:58;;;;;;;4.68;1.45;;;19.10;78.10;;;;;;5073360;28;20036;-83
2021/10/11 10:17:36;;;;;;;4.88;1.67;;;19.10;78.00;;;;;;5076394;28;20040;-82
2021/10/11 10:20:11;;;;;;;3.08;1.25;;;19.20;78.20;;;;;;5094371;28;20023;-82
2021/10/11 10:22:42;;;;;;;3.72;1.23;;;19.20;78.10;;;;;;5080346;28;20024;-83
2021/10/11 10:25:10;;;;;;;3.60;1.42;;;19.20;78.10;;;;;;5074151;28;20078;-82
2021/10/11 10:27:39;;;;;;;3.95;1.75;;;19.20;78.40;;;;;;5073859;28;20059;-84
2021/10/11 10:30:23;;;;;;;3.33;1.20;;;19.20;79.10;;;;;;5073829;28;20416;-83
2021/10/11 10:32:53;;;;;;;6.60;1.63;;;19.30;78.40;;;;;;5072624;28;20059;-83
2021/10/11 10:35:19;;;;;;;2.25;1.33;;;19.30;78.50;;;;;;5053716;28;20032;-82
2021/10/11 10:37:45;;;;;;;4.97;1.20;;;19.30;78.60;;;;;;5054323;28;20025;-82
2021/10/11 10:40:14;;;;;;;3.72;1.25;;;19.40;78.50;;;;;;5053647;28;20489;-81
2021/10/11 10:42:40;;;;;;;2.70;1.30;;;19.40;78.40;;;;;;5052521;28;20032;-81
2021/10/11 10:45:21;;;;;;;3.13;1.85;;;19.40;78.40;;;;;;5053760;28;20025;-82
2021/10/11 10:47:51;;;;;;;7.38;2.38;;;19.50;78.50;;;;;;5054195;28;20048;-80
2021/10/11 10:50:21;;;;;;;6.10;3.53;;;19.50;78.80;;;;;;5053992;28;20109;-81
2021/10/11 10:52:54;;;;;;;8.18;4.30;;;19.60;78.90;;;;;;5053875;28;20033;-81
2021/10/11 10:55:21;;;;;;;9.68;6.30;;;19.60;79.10;;;;;;5053116;28;20025;-80
2021/10/11 10:57:47;;;;;;;7.68;4.70;;;19.60;79.40;;;;;;5053740;28;20037;-81
2021/10/11 11:00:18;;;;;;;10.38;6.25;;;19.70;79.50;;;;;;5053319;28;20063;-81
2021/10/11 11:02:50;;;;;;;16.40;8.45;;;19.70;79.60;;;;;;5053387;28;20531;-82
2021/10/11 11:05:16;;;;;;;14.13;8.75;;;19.80;79.80;;;;;;5053547;28;20060;-83
2021/10/11 11:07:44;;;;;;;16.42;9.13;;;19.80;80.00;;;;;;5035406;28;20032;-82
2021/10/11 11:10:12;;;;;;;16.65;7.72;;;19.80;79.90;;;;;;5062395;28;20051;-83
2021/10/11 11:12:41;;;;;;;14.25;7.28;;;19.90;79.80;;;;;;5072684;28;20341;-82
2021/10/11 11:15:41;;;;;;;11.27;6.53;;;19.90;79.70;;;;;;5072745;28;20504;-83
2021/10/11 11:18:16;;;;;;;12.50;7.40;;;20.00;79.50;;;;;;5051095;28;20040;-82
2021/10/11 11:20:43;;;;;;;;;;;20.10;79.30;;;;;;5073444;28;20035;-82
2021/10/11 11:23:11;;;;;;;10.63;5.55;;;20.10;79.10;;;;;;5073131;28;20290;-82
2021/10/11 11:25:41;;;;;;;9.43;5.25;;;20.10;79.00;;;;;;5072819;28;20012;-83
2021/10/11 11:28:10;;;;;;;10.13;5.25;;;20.20;78.90;;;;;;5054429;28;20081;-82
2021/10/11 11:30:37;;;;;;;8.60;4.53;;;20.20;78.70;;;;;;5072751;28;20028;-83
2021/10/11 11:33:11;;;;;;;9.02;5.57;;;20.30;78.70;;;;;;5054908;28;20025;-83
2021/10/11 11:35:48;;;;;;;8.90;4.55;;;20.30;78.50;;;;;;5072730;28;20071;-84
2021/10/11 11:38:16;;;;;;;8.80;4.45;;;20.40;78.50;;;;;;5055148;28;20029;-84
2021/10/11 11:40:45;;;;;;;10.20;4.60;;;20.50;78.10;;;;;;5071746;28;20058;-83
2021/10/11 11:43:12;;;;;;;8.77;4.30;;;20.60;77.80;;;;;;5071819;28;20450;-84
2021/10/11 11:45:49;;;;;;;5.95;3.95;;;20.60;78.10;;;;;;5076993;28;20099;-82
2021/10/11 11:48:21;;;;;;;8.50;4.13;;;20.80;77.10;;;;;;5086445;28;20032;-83
2021/10/11 11:50:50;;;;;;;7.97;3.40;;;20.90;76.30;;;;;;5075032;28;20103;-82
2021/10/11 11:53:18;;;;;;;6.55;3.10;;;21.10;75.70;;;;;;5091308;28;20050;-83
2021/10/11 11:55:49;;;;;;;6.82;3.15;;;21.20;75.30;;;;;;5092265;28;20069;-82
2021/10/11 11:58:33;;;;;;;5.97;2.80;;;21.30;75.00;;;;;;5092905;28;20020;-84
2021/10/11 12:00:59;;;;;;;5.90;2.60;;;21.20;75.50;;;;;;5091116;28;20095;-82
2021/10/11 12:03:28;;;;;;;5.90;2.78;;;21.20;74.90;;;;;;5072137;28;20111;-84
2021/10/11 12:05:56;;;;;;;5.63;2.50;;;21.20;75.20;;;;;;5072164;28;20017;-84
2021/10/11 12:08:22;;;;;;;5.40;2.88;;;21.20;75.40;;;;;;5071256;28;20021;-84
2021/10/11 12:11:05;;;;;;;6.28;2.70;;;21.10;75.50;;;;;;5053972;28;20021;-84
2021/10/11 12:13:33;;;;;;;4.70;2.22;;;21.00;75.60;;;;;;5071082;28;20070;-84
2021/10/11 12:16:04;;;;;;;6.05;3.08;;;21.30;75.80;;;;;;5072056;28;20056;-84
2021/10/11 12:18:40;;;;;;;4.57;2.47;;;21.60;74.20;;;;;;5071761;28;20445;-84
2021/10/11 12:21:17;;;;;;;4.60;2.00;;;22.00;72.50;;;;;;5071868;28;20099;-85
2021/10/11 12:23:44;;;;;;;5.38;2.08;;;22.20;71.50;;;;;;5071650;28;20020;-84
2021/10/11 12:26:11;;;;;;;8.73;2.80;;;22.10;71.90;;;;;;5071794;28;20147;-85
2021/10/11 12:28:47;;;;;;;5.05;1.95;;;22.00;71.60;;;;;;5071005;28;20070;-84
2021/10/11 12:31:18;;;;;;;4.93;1.80;;;21.90;72.10;;;;;;5071574;28;20469;-84
2021/10/11 12:33:43;;;;;;;4.68;2.25;;;21.90;72.10;;;;;;5071389;28;20033;-84
2021/10/11 12:36:11;;;;;;;4.43;2.25;;;21.90;71.90;;;;;;5071672;28;20040;-85
2021/10/11 12:38:39;;;;;;;4.20;2.20;;;21.90;71.90;;;;;;5071595;28;20069;-85
2021/10/11 12:41:16;;;;;;;5.95;2.55;;;21.90;72.10;;;;;;5071604;28;20090;-84
2021/10/11 12:43:56;;;;;;;3.72;1.77;;;21.90;72.00;;;;;;5070767;28;20103;-85
2021/10/11 12:46:24;;;;;;;5.40;1.92;;;21.80;72.70;;;;;;5071289;28;20354;-84
2021/10/11 12:48:54;;;;;;;4.90;1.77;;;21.80;72.30;;;;;;5071449;28;20020;-84